createdAt,value
2023-02-18T00:00:18.850Z,98979.48
2023-02-18T00:03:41.602Z,98981.22
2023-02-18T00:07:03.456Z,98982.48
2023-02-18T00:10:26.569Z,98986.14
2023-02-18T00:14:00.492Z,98998.02
2023-02-18T00:17:22.434Z,99004.50
2023-02-18T00:20:44.227Z,99026.30
2023-02-18T00:24:07.201Z,99019.34
2023-02-18T00:27:30.917Z,99020.91
2023-02-18T00:30:52.897Z,99020.23
2023-02-18T00:34:14.972Z,99023.74
2023-02-18T00:37:36.799Z,99025.32
2023-02-18T00:40:59.002Z,99026.20
2023-02-18T00:44:20.842Z,99023.97
2023-02-18T00:47:45.366Z,99020.32
2023-02-18T00:51:08.131Z,99018.04
2023-02-18T00:54:29.986Z,99024.00
2023-02-18T00:57:52.090Z,99032.73
2023-02-18T01:01:14.128Z,99027.34
2023-02-18T01:04:35.940Z,99033.96
2023-02-18T01:07:57.927Z,99030.31
2023-02-18T01:11:23.049Z,99035.89
2023-02-18T01:14:46.217Z,99034.16
2023-02-18T01:18:08.980Z,99041.30
2023-02-18T01:21:30.801Z,99038.36
2023-02-18T01:24:52.914Z,99038.91
2023-02-18T01:28:15.465Z,99048.15
2023-02-18T01:31:41.719Z,99041.72
2023-02-18T01:35:05.049Z,99024.64
2023-02-18T01:38:29.384Z,99034.08
2023-02-18T01:41:51.962Z,99028.48
2023-02-18T01:45:36.064Z,99027.63
2023-02-18T01:48:59.296Z,99023.63
2023-02-18T01:52:25.513Z,99025.19
2023-02-18T01:55:49.076Z,99021.35
2023-02-18T01:59:17.144Z,99023.62
2023-02-18T02:02:44.913Z,99026.95
2023-02-18T02:06:15.864Z,99023.13
2023-02-18T02:09:40.400Z,99012.85
2023-02-18T02:13:39.152Z,99017.23
2023-02-18T02:17:16.141Z,99014.10
2023-02-18T02:21:08.916Z,99019.34
2023-02-18T02:24:50.079Z,99001.05
2023-02-18T02:28:33.960Z,98998.80
2023-02-18T02:32:11.110Z,99001.77
2023-02-18T02:35:48.717Z,99000.05
2023-02-18T02:39:21.910Z,99000.41
2023-02-18T02:42:59.032Z,98997.10
2023-02-18T02:46:35.696Z,99002.33
2023-02-18T02:50:08.452Z,99008.95
2023-02-18T02:53:31.801Z,99022.02
2023-02-18T02:57:08.215Z,99020.13
2023-02-18T03:00:55.472Z,99026.73
2023-02-18T03:04:45.719Z,99033.70
2023-02-18T03:08:46.550Z,99035.79
2023-02-18T03:12:20.017Z,99046.92
2023-02-18T03:15:56.184Z,99043.61
2023-02-18T03:19:26.046Z,99047.09
2023-02-18T03:22:52.310Z,99053.36
2023-02-18T03:26:16.422Z,99057.02
2023-02-18T03:29:41.141Z,99056.34
2023-02-18T03:33:05.444Z,99056.67
2023-02-18T03:36:27.801Z,99049.19
2023-02-18T03:39:52.765Z,99055.98
2023-02-18T03:43:15.962Z,99060.69
2023-02-18T03:46:39.969Z,99071.14
2023-02-18T03:50:01.812Z,99076.18
2023-02-18T03:53:23.658Z,99083.15
2023-02-18T03:56:45.841Z,99083.85
2023-02-18T04:00:09.219Z,99083.68
2023-02-18T04:03:37.407Z,99079.31
2023-02-18T04:06:59.266Z,99086.13
2023-02-18T04:10:22.784Z,99095.34
2023-02-18T04:13:44.516Z,99082.45
2023-02-18T04:17:06.348Z,99101.60
2023-02-18T04:20:28.351Z,99109.25
2023-02-18T04:23:50.089Z,99097.61
2023-02-18T04:27:12.101Z,99100.73
2023-02-18T04:30:34.584Z,99099.70
2023-02-18T04:33:56.475Z,99105.96
2023-02-18T04:37:18.184Z,99107.36
2023-02-18T04:40:39.918Z,99103.17
2023-02-18T04:44:01.767Z,99097.80
2023-02-18T04:47:24.261Z,99102.48
2023-02-18T04:50:46.345Z,99106.14
2023-02-18T04:54:08.092Z,99099.19
2023-02-18T04:57:29.812Z,99102.14
2023-02-18T05:00:51.733Z,99101.11
2023-02-18T05:04:13.519Z,99103.19
2023-02-18T05:07:35.443Z,99102.48
2023-02-18T05:10:57.222Z,99106.14
2023-02-18T05:14:18.991Z,99106.33
2023-02-18T05:17:40.885Z,99108.42
2023-02-18T05:21:02.678Z,99111.19
2023-02-18T05:24:24.486Z,99115.02
2023-02-18T05:27:46.246Z,99132.41
2023-02-18T05:31:08.671Z,99132.94
2023-02-18T05:34:30.449Z,99128.94
2023-02-18T05:37:52.227Z,99125.80
2023-02-18T05:41:13.980Z,99141.45
2023-02-18T05:44:35.815Z,99146.16
2023-02-18T05:47:57.554Z,99147.91
2023-02-18T05:51:19.300Z,99150.85
2023-02-18T05:54:41.152Z,99145.80
2023-02-18T05:58:02.887Z,99147.90
2023-02-18T06:01:24.980Z,99158.52
2023-02-18T06:04:46.736Z,99163.04
2023-02-18T06:08:08.508Z,99163.02
2023-02-18T06:11:31.131Z,99167.38
2023-02-18T06:14:53.134Z,99172.95
2023-02-18T06:18:14.855Z,99166.33
2023-02-18T06:21:36.739Z,99185.46
2023-02-18T06:24:58.474Z,99181.11
2023-02-18T06:28:20.218Z,99172.08
2023-02-18T06:31:42.032Z,99169.98
2023-02-18T06:35:03.936Z,99184.08
2023-02-18T06:38:26.871Z,99180.26
2023-02-18T06:41:48.677Z,99197.98
2023-02-18T06:45:10.474Z,99208.95
2023-02-18T06:48:32.580Z,99204.79
2023-02-18T06:51:54.331Z,99220.44
2023-02-18T06:55:16.121Z,99221.32
2023-02-18T06:58:38.425Z,99219.58
2023-02-18T07:02:00.879Z,99220.27
2023-02-18T07:05:22.759Z,99228.45
2023-02-18T07:08:47.268Z,99223.75
2023-02-18T07:12:08.998Z,99220.63
2023-02-18T07:15:30.756Z,99215.41
2023-02-18T07:19:03.682Z,99227.77
2023-02-18T07:22:28.438Z,99221.50
2023-02-18T07:25:50.156Z,99221.67
2023-02-18T07:29:11.890Z,99220.98
2023-02-18T07:32:33.863Z,99221.52
2023-02-18T07:35:57.292Z,99223.64
2023-02-18T07:39:20.864Z,99217.02
2023-02-18T07:42:44.018Z,99216.30
2023-02-18T07:46:09.769Z,99216.77
2023-02-18T07:49:32.803Z,99216.41
2023-02-18T07:52:55.109Z,99223.81
2023-02-18T07:56:18.625Z,99229.48
2023-02-18T07:59:41.157Z,99229.95
2023-02-18T08:03:03.177Z,99226.80
2023-02-18T08:06:33.129Z,99236.55
2023-02-18T08:09:55.046Z,99234.07
2023-02-18T08:13:17.099Z,99227.98
2023-02-18T08:16:42.020Z,99238.27
2023-02-18T08:20:03.972Z,99238.81
2023-02-18T08:23:26.455Z,99233.40
2023-02-18T08:26:59.819Z,99235.48
2023-02-18T08:30:22.655Z,99239.26
2023-02-18T08:33:44.545Z,99235.67
2023-02-18T08:37:06.409Z,99233.39
2023-02-18T08:40:28.235Z,99232.81
2023-02-18T08:43:50.358Z,99236.55
2023-02-18T08:48:13.282Z,99235.57
2023-02-18T08:51:00.210Z,99239.73
2023-02-18T08:54:24.046Z,99254.77
2023-02-18T08:57:45.832Z,99251.21
2023-02-18T09:01:09.700Z,99256.34
2023-02-18T09:04:31.904Z,99253.05
2023-02-18T09:07:53.722Z,99260.54
2023-02-18T09:11:16.090Z,99264.02
2023-02-18T09:14:37.928Z,99270.96
2023-02-18T09:18:04.325Z,99277.36
2023-02-18T09:21:29.987Z,99278.40
2023-02-18T09:24:51.897Z,99286.05
2023-02-18T09:28:14.433Z,99283.27
2023-02-18T09:31:38.051Z,99282.91
2023-02-18T09:35:02.901Z,99287.10
2023-02-18T09:38:24.976Z,99293.36
2023-02-18T09:41:51.921Z,99294.71
2023-02-18T09:45:13.941Z,99296.56
2023-02-18T09:48:44.170Z,99298.77
2023-02-18T09:52:23.956Z,99301.50
2023-02-18T09:55:49.242Z,99302.27
2023-02-18T09:59:25.152Z,99312.32
2023-02-18T10:02:56.143Z,99316.23
2023-02-18T10:06:24.841Z,99318.95
2023-02-18T10:09:47.763Z,99321.95
2023-02-18T10:13:28.696Z,99330.92
2023-02-18T10:16:51.520Z,99329.45
2023-02-18T10:20:17.468Z,99327.94
2023-02-18T10:24:01.196Z,99328.63
2023-02-18T10:27:28.999Z,99335.07
2023-02-18T10:31:04.305Z,99329.46
2023-02-18T10:34:48.447Z,99331.16
2023-02-18T10:38:32.148Z,99323.08
2023-02-18T10:42:31.172Z,99312.55
2023-02-18T10:46:05.154Z,99319.19
2023-02-18T10:49:45.626Z,99305.89
2023-02-18T10:53:34.444Z,99298.23
2023-02-18T10:57:00.866Z,99289.69
2023-02-18T11:00:25.374Z,99293.52
2023-02-18T11:03:49.601Z,99290.50
2023-02-18T11:07:32.592Z,99294.92
2023-02-18T11:10:55.005Z,99293.17
2023-02-18T11:14:21.522Z,99294.59
2023-02-18T11:21:24.551Z,99291.20
2023-02-18T11:24:48.736Z,99294.38
2023-02-18T11:28:16.874Z,99281.05
2023-02-18T11:31:45.573Z,99277.67
2023-02-18T11:35:07.600Z,99281.23
2023-02-18T11:38:42.360Z,99273.60
2023-02-18T11:42:07.662Z,99275.19
2023-02-18T11:45:34.056Z,99276.91
2023-02-18T11:48:56.129Z,99271.38
2023-02-18T11:52:27.905Z,99268.64
2023-02-18T11:55:56.458Z,99258.27
2023-02-18T11:59:18.217Z,99264.11
2023-02-18T12:02:40.920Z,99257.92
2023-02-18T12:06:06.393Z,99247.48
2023-02-18T12:13:22.038Z,99249.21
2023-02-18T12:17:17.661Z,99250.79
2023-02-18T12:20:49.447Z,99238.25
2023-02-18T12:24:18.591Z,99241.73
2023-02-18T12:28:04.584Z,99246.96
2023-02-18T12:32:04.561Z,99246.92
2023-02-18T12:36:17.892Z,99235.45
2023-02-18T12:40:04.111Z,99222.05
2023-02-18T12:43:42.284Z,99213.66
2023-02-18T12:47:13.498Z,99219.92
2023-02-18T12:50:55.954Z,99213.09
2023-02-18T12:54:54.703Z,99216.82
2023-02-18T12:58:25.909Z,99218.68
2023-02-18T13:02:15.062Z,99216.54
2023-02-18T13:05:55.098Z,99208.68
2023-02-18T13:09:30.213Z,99206.60
2023-02-18T13:13:01.406Z,99198.70
2023-02-18T13:16:24.130Z,99201.02
2023-02-18T13:20:07.620Z,99193.45
2023-02-18T13:23:33.133Z,99194.23
2023-02-18T13:27:22.183Z,99191.70
2023-02-18T13:30:52.985Z,99202.39
2023-02-18T13:34:46.990Z,99195.36
2023-02-18T13:38:30.794Z,99197.37
2023-02-18T13:42:12.144Z,99198.84
2023-02-18T13:45:34.161Z,99201.72
2023-02-18T13:49:04.882Z,99199.57
2023-02-18T13:52:27.405Z,99201.36
2023-02-18T13:55:54.993Z,99200.31
2023-02-18T13:59:45.590Z,99200.52
2023-02-18T14:03:42.684Z,99203.90
2023-02-18T14:07:23.193Z,99203.23
2023-02-18T14:11:14.526Z,99194.90
2023-02-18T14:14:38.204Z,99190.80
2023-02-18T14:18:15.026Z,99187.08
2023-02-18T14:21:39.457Z,99185.03
2023-02-18T14:25:16.946Z,99192.38
2023-02-18T14:28:45.307Z,99181.72
2023-02-18T14:32:11.862Z,99182.84
2023-02-18T14:35:42.942Z,99174.01
2023-02-18T14:39:42.156Z,99172.70
2023-02-18T14:43:16.031Z,99165.61
2023-02-18T14:46:57.031Z,99152.59
2023-02-18T14:50:25.021Z,99150.33
2023-02-18T14:53:47.871Z,99151.94
2023-02-18T14:57:18.274Z,99156.84
2023-02-18T15:00:42.908Z,99157.74
2023-02-18T15:04:05.066Z,99154.98
2023-02-18T15:07:27.336Z,99156.21
2023-02-18T15:11:05.219Z,99158.99
2023-02-18T15:14:34.442Z,99177.11
2023-02-18T15:17:56.328Z,99180.25
2023-02-18T15:21:31.113Z,99176.26
2023-02-18T15:24:55.082Z,99174.69
2023-02-18T15:28:26.880Z,99179.58
2023-02-18T15:31:49.763Z,99175.06
2023-02-18T15:35:18.584Z,99179.73
2023-02-18T15:38:44.567Z,99180.61
2023-02-18T15:42:23.929Z,99171.19
2023-02-18T15:45:47.091Z,99172.70
2023-02-18T15:49:08.826Z,99171.62
2023-02-18T15:52:33.961Z,99170.87
2023-02-18T15:55:56.634Z,99165.96
2023-02-18T15:59:43.322Z,99166.06
2023-02-18T16:03:16.505Z,99171.55
2023-02-18T16:06:45.962Z,99166.60
2023-02-18T16:10:44.906Z,99162.91
2023-02-18T16:14:07.236Z,99161.45
2023-02-18T16:17:30.049Z,99163.33
2023-02-18T16:21:02.128Z,99160.67
2023-02-18T16:24:29.363Z,99164.80
2023-02-18T16:28:03.167Z,99163.72
2023-02-18T16:31:25.077Z,99159.35
2023-02-18T16:34:49.099Z,99163.64
2023-02-18T16:38:20.331Z,99166.20
2023-02-18T16:41:42.155Z,99165.30
2023-02-18T16:45:06.362Z,99167.02
2023-02-18T16:48:32.522Z,99162.83
2023-02-18T16:51:54.395Z,99160.36
2023-02-18T16:55:24.366Z,99157.54
2023-02-18T16:58:46.444Z,99156.35
2023-02-18T17:02:18.743Z,99158.27
2023-02-18T17:05:41.247Z,99158.74
2023-02-18T17:09:03.118Z,99160.98
2023-02-18T17:12:25.488Z,99163.89
2023-02-18T17:19:26.646Z,99150.22
2023-02-18T17:22:48.485Z,99149.27
2023-02-18T17:26:32.631Z,99164.44
2023-02-18T17:29:57.006Z,99153.79
2023-02-18T17:33:19.310Z,99155.75
2023-02-18T17:36:45.486Z,99159.42
2023-02-18T17:40:20.290Z,99159.29
2023-02-18T17:43:42.491Z,99167.82
2023-02-18T17:47:04.388Z,99166.46
2023-02-18T17:50:26.974Z,99159.52
2023-02-18T17:53:49.874Z,99156.23
2023-02-18T17:57:11.656Z,99155.55
2023-02-18T18:00:36.631Z,99152.45
2023-02-18T18:03:58.641Z,99150.54
2023-02-18T18:07:20.583Z,99144.27
2023-02-18T18:10:50.216Z,99141.83
2023-02-18T18:14:14.813Z,99141.48
2023-02-18T18:17:39.017Z,99138.03
2023-02-18T18:21:01.581Z,99135.09
2023-02-18T18:24:23.328Z,99135.45
2023-02-18T18:27:45.436Z,99128.85
2023-02-18T18:31:14.514Z,99130.42
2023-02-18T18:34:36.356Z,99134.77
2023-02-18T18:37:59.128Z,99136.86
2023-02-18T18:41:22.701Z,99138.05
2023-02-18T18:44:44.473Z,99139.42
2023-02-18T18:48:09.340Z,99136.64
2023-02-18T18:51:32.794Z,99133.41
2023-02-18T18:54:55.045Z,99128.67
2023-02-18T18:58:26.200Z,99131.02
2023-02-18T19:01:48.015Z,99133.63
2023-02-18T19:05:21.070Z,99134.70
2023-02-18T19:08:43.063Z,99137.00
2023-02-18T19:12:04.973Z,99153.20
2023-02-18T19:15:27.125Z,99160.92
2023-02-18T19:18:49.435Z,99171.12
2023-02-18T19:22:11.244Z,99176.75
2023-02-18T19:25:33.190Z,99175.43
2023-02-18T19:28:55.069Z,99186.43
2023-02-18T19:32:16.898Z,99194.63
2023-02-18T19:35:40.286Z,99190.34
2023-02-18T19:39:02.072Z,99182.72
2023-02-18T19:42:23.898Z,99187.60
2023-02-18T19:45:47.417Z,99200.98
2023-02-18T19:49:11.515Z,99194.05
2023-02-18T19:52:33.848Z,99205.52
2023-02-18T19:56:02.210Z,99211.44
2023-02-18T19:59:24.646Z,99213.20
2023-02-18T20:02:46.850Z,99217.88
2023-02-18T20:06:19.780Z,99231.07
2023-02-18T20:09:41.578Z,99246.52
2023-02-18T20:13:05.875Z,99254.86
2023-02-18T20:16:27.784Z,99259.18
2023-02-18T20:19:49.826Z,99255.52
2023-02-18T20:23:11.629Z,99261.60
2023-02-18T20:26:33.449Z,99260.03
2023-02-18T20:29:55.297Z,99264.89
2023-02-18T20:33:17.098Z,99274.61
2023-02-18T20:36:39.041Z,99276.84
2023-02-18T20:40:01.018Z,99280.45
2023-02-18T20:43:23.080Z,99279.40
2023-02-18T20:46:45.110Z,99284.26
2023-02-18T20:50:07.482Z,99280.78
2023-02-18T20:53:33.535Z,99292.23
2023-02-18T20:56:55.404Z,99296.76
2023-02-18T21:00:17.580Z,99306.11
2023-02-18T21:03:39.617Z,99308.86
2023-02-18T21:07:01.662Z,99313.38
2023-02-18T21:10:24.515Z,99316.66
2023-02-18T21:13:48.522Z,99320.81
2023-02-18T21:17:10.553Z,99321.33
2023-02-18T21:24:08.301Z,99328.13
2023-02-18T21:27:30.113Z,99332.08
2023-02-18T21:30:51.929Z,99334.85
2023-02-18T21:34:17.286Z,99336.07
2023-02-18T21:37:39.148Z,99342.48
2023-02-18T21:41:04.793Z,99352.88
2023-02-18T21:44:40.189Z,99360.14
2023-02-18T21:48:22.494Z,99363.59
2023-02-18T21:51:59.275Z,99374.14
2023-02-18T21:55:21.082Z,99368.01
2023-02-18T21:58:44.352Z,99379.38
2023-02-18T22:02:07.497Z,99390.44
2023-02-18T22:05:30.864Z,99397.84
2023-02-18T22:08:52.904Z,99404.70
2023-02-18T22:12:15.073Z,99413.83
2023-02-18T22:15:36.881Z,99411.15
2023-02-18T22:18:58.826Z,99406.06
2023-02-18T22:22:20.668Z,99418.34
2023-02-18T22:25:42.474Z,99422.45
2023-02-18T22:29:04.666Z,99428.01
2023-02-18T22:32:26.565Z,99424.84
2023-02-18T22:35:48.362Z,99436.05
2023-02-18T22:39:11.091Z,99439.60
2023-02-18T22:46:20.265Z,99445.80
2023-02-18T22:49:44.439Z,99449.92
2023-02-18T22:53:06.264Z,99450.56
2023-02-18T22:56:29.426Z,99447.55
2023-02-18T22:59:51.353Z,99449.19
2023-02-18T23:03:13.147Z,99448.67
2023-02-18T23:06:36.400Z,99456.45
2023-02-18T23:09:58.299Z,99462.00
2023-02-18T23:13:20.130Z,99473.27
2023-02-18T23:17:00.557Z,99471.52
2023-02-18T23:20:42.365Z,99483.30
2023-02-18T23:24:04.426Z,99480.84
2023-02-18T23:27:26.896Z,99483.59
2023-02-18T23:30:48.728Z,99487.73
2023-02-18T23:34:15.663Z,99486.50
2023-02-18T23:37:56.269Z,99498.80
2023-02-18T23:41:19.481Z,99506.08
2023-02-18T23:44:41.442Z,99500.86
2023-02-18T23:48:03.335Z,99506.23
2023-02-18T23:51:25.170Z,99511.77
2023-02-18T23:54:47.134Z,99511.08
2023-02-18T23:58:08.929Z,99513.84
